Time;durP1;ratioP1;P1;durP2;ratioP2;P2;SDS_P1;SDS_P2;PMS_P1;PMS_P2;Temp;Humidity;BMP_temperature;BMP_pressure;BME280_temperature;BME280_humidity;BME280_pressure;Samples;Min_cycle;Max_cycle;Signal;HPM_P1;HPM_P2
2023/11/01 00:01:27;;;;;;;0.57;0.38;;;17.90;74.70;;;;;;5065260;28;20108;-73
2023/11/01 00:03:52;;;;;;;1.00;0.70;;;17.90;74.70;;;;;;5062085;28;20048;-73
2023/11/01 00:06:18;;;;;;;0.88;0.50;;;17.90;74.70;;;;;;5064328;28;20060;-73
2023/11/01 00:08:43;;;;;;;0.70;0.50;;;17.90;74.80;;;;;;5064602;28;20051;-73
2023/11/01 00:11:09;;;;;;;0.98;0.60;;;17.90;75.10;;;;;;5066400;28;20529;-73
2023/11/01 00:13:34;;;;;;;0.82;0.60;;;17.90;75.20;;;;;;5065181;28;20063;-73
2023/11/01 00:16:00;;;;;;;0.90;0.47;;;17.90;75.70;;;;;;5064560;28;20055;-73
2023/11/01 00:18:26;;;;;;;0.88;0.70;;;17.90;75.80;;;;;;5066915;28;20086;-73
2023/11/01 00:20:51;;;;;;;0.77;0.50;;;17.90;76.20;;;;;;5062331;28;20055;-74
2023/11/01 00:23:17;;;;;;;1.02;0.75;;;17.90;75.80;;;;;;5061983;28;20139;-73
2023/11/01 00:25:42;;;;;;;0.80;0.60;;;17.90;75.70;;;;;;5061357;28;20115;-74
2023/11/01 00:28:08;;;;;;;0.47;0.43;;;17.90;75.70;;;;;;5060846;28;20040;-73
2023/11/01 00:30:34;;;;;;;0.75;0.50;;;17.90;75.70;;;;;;5064420;28;20029;-73
2023/11/01 00:32:59;;;;;;;1.02;0.60;;;17.90;75.30;;;;;;5061082;28;20036;-73
2023/11/01 00:35:25;;;;;;;0.65;0.50;;;17.90;75.50;;;;;;5060658;28;20040;-73
2023/11/01 00:37:51;;;;;;;1.00;0.50;;;17.90;75.50;;;;;;5060943;28;20097;-73
2023/11/01 00:40:16;;;;;;;0.63;0.63;;;17.90;75.50;;;;;;5061812;28;20536;-73
2023/11/01 00:42:42;;;;;;;0.80;0.57;;;17.90;75.50;;;;;;5060808;28;20398;-74
2023/11/01 00:45:08;;;;;;;0.80;0.50;;;17.90;75.80;;;;;;5060480;28;20113;-73
2023/11/01 00:47:34;;;;;;;1.15;0.45;;;17.90;75.70;;;;;;5060953;28;20028;-73
2023/11/01 00:49:59;;;;;;;0.85;0.50;;;17.80;76.30;;;;;;5060968;28;20455;-73
2023/11/01 00:52:25;;;;;;;0.93;0.50;;;17.80;76.30;;;;;;5064502;28;20472;-72
2023/11/01 00:54:51;;;;;;;0.75;0.60;;;17.80;76.20;;;;;;5064211;28;20294;-73
2023/11/01 00:57:16;;;;;;;0.70;0.35;;;17.80;75.90;;;;;;5097869;27;20510;-72
2023/11/01 00:59:42;;;;;;;0.85;0.50;;;17.80;76.00;;;;;;5064438;28;20069;-73
2023/11/01 01:02:07;;;;;;;0.30;0.30;;;17.90;76.10;;;;;;5046487;28;20060;-73
2023/11/01 01:04:33;;;;;;;0.55;0.50;;;17.80;75.80;;;;;;5064460;28;20193;-72
2023/11/01 01:06:58;;;;;;;0.40;0.30;;;17.80;76.10;;;;;;5062581;28;20037;-73
2023/11/01 01:09:24;;;;;;;0.82;0.30;;;17.90;76.20;;;;;;5067349;28;20036;-72
2023/11/01 01:11:49;;;;;;;0.70;0.40;;;17.80;76.20;;;;;;5068166;28;20245;-73
2023/11/01 01:14:17;;;;;;;1.40;0.70;;;17.80;76.20;;;;;;5063143;28;20049;-73
2023/11/01 01:16:43;;;;;;;0.77;0.32;;;17.80;76.10;;;;;;5063722;28;20064;-73
2023/11/01 01:19:08;;;;;;;0.82;0.50;;;17.80;76.40;;;;;;5058836;28;20046;-73
2023/11/01 01:21:35;;;;;;;1.55;0.60;;;17.80;76.20;;;;;;5067147;28;20335;-73
2023/11/01 01:24:00;;;;;;;0.40;0.38;;;17.90;76.10;;;;;;5062119;28;20044;-73
2023/11/01 01:26:26;;;;;;;0.50;0.45;;;17.80;76.30;;;;;;5048499;28;20048;-73
2023/11/01 01:28:51;;;;;;;0.47;0.47;;;17.80;76.30;;;;;;5065333;28;20052;-73
2023/11/01 01:31:17;;;;;;;0.80;0.50;;;17.80;76.30;;;;;;5065240;28;20052;-73
2023/11/01 01:33:44;;;;;;;0.63;0.50;;;17.80;76.20;;;;;;5062043;28;20107;-73
2023/11/01 01:36:11;;;;;;;0.73;0.35;;;17.80;76.50;;;;;;5064049;28;20048;-73
2023/11/01 01:38:36;;;;;;;0.60;0.30;;;17.80;76.40;;;;;;5059723;28;20041;-73
2023/11/01 01:41:02;;;;;;;1.20;0.35;;;17.80;76.70;;;;;;5064691;28;20045;-73
2023/11/01 01:43:28;;;;;;;0.35;0.32;;;17.80;76.50;;;;;;5061794;28;20178;-73
2023/11/01 01:46:10;;;;;;;0.70;0.40;;;17.80;76.60;;;;;;5062247;28;20498;-73
2023/11/01 01:48:36;;;;;;;0.77;0.57;;;17.80;76.40;;;;;;5094368;28;20040;-73
2023/11/01 01:51:03;;;;;;;0.95;0.35;;;17.80;76.70;;;;;;5060219;28;20119;-73
2023/11/01 01:53:29;;;;;;;1.60;0.50;;;17.80;76.70;;;;;;5063344;28;20040;-73
2023/11/01 01:55:54;;;;;;;1.23;0.40;;;17.80;76.50;;;;;;5062804;28;20508;-73
2023/11/01 01:58:21;;;;;;;0.85;0.52;;;17.80;77.70;;;;;;5062901;28;20097;-73
2023/11/01 02:00:48;;;;;;;0.73;0.40;;;17.80;77.00;;;;;;5062039;28;20045;-74
2023/11/01 02:03:13;;;;;;;0.60;0.40;;;17.80;77.10;;;;;;5092115;28;20036;-73
2023/11/01 02:05:39;;;;;;;0.40;0.40;;;17.80;77.10;;;;;;5041475;28;20039;-73
2023/11/01 02:08:05;;;;;;;0.93;0.80;;;17.90;77.20;;;;;;5061066;28;20037;-73
2023/11/01 02:10:30;;;;;;;0.75;0.35;;;17.80;77.20;;;;;;5061452;28;20550;-73
2023/11/01 02:12:56;;;;;;;0.38;0.38;;;17.80;77.30;;;;;;5062354;28;20155;-73
2023/11/01 02:15:21;;;;;;;0.73;0.30;;;17.80;77.10;;;;;;5064241;28;20052;-73
2023/11/01 02:17:47;;;;;;;0.47;0.30;;;17.80;77.20;;;;;;5060357;28;20063;-73
2023/11/01 02:20:13;;;;;;;0.30;0.30;;;17.80;77.50;;;;;;5059281;28;20993;-73
2023/11/01 02:22:39;;;;;;;0.63;0.30;;;17.80;77.40;;;;;;5062533;28;20127;-73
2023/11/01 02:25:05;;;;;;;0.77;0.43;;;17.80;77.50;;;;;;5096533;28;20108;-73
2023/11/01 02:27:31;;;;;;;1.23;0.50;;;17.80;77.50;;;;;;5081775;28;20403;-73
2023/11/01 02:29:56;;;;;;;0.47;0.30;;;17.80;77.20;;;;;;5062379;28;20039;-73
2023/11/01 02:32:26;;;;;;;0.55;0.40;;;17.80;77.30;;;;;;5061697;28;20431;-73
2023/11/01 02:34:52;;;;;;;0.30;0.30;;;17.80;77.50;;;;;;5062607;28;20097;-73
2023/11/01 02:37:17;;;;;;;0.30;0.30;;;17.80;77.30;;;;;;5062124;28;20036;-73
2023/11/01 02:39:43;;;;;;;0.40;0.25;;;17.80;77.50;;;;;;5061589;28;20093;-73
2023/11/01 02:42:08;;;;;;;0.47;0.40;;;17.80;77.10;;;;;;5065064;28;20048;-73
2023/11/01 02:44:34;;;;;;;0.50;0.30;;;17.80;77.50;;;;;;5061229;28;20490;-73
2023/11/01 02:47:00;;;;;;;0.65;0.45;;;17.80;77.50;;;;;;5060011;28;20048;-73
2023/11/01 02:49:25;;;;;;;1.27;0.70;;;17.80;77.40;;;;;;5044971;28;20756;-73
2023/11/01 02:51:51;;;;;;;0.60;0.30;;;17.80;77.40;;;;;;5062452;28;20047;-73
2023/11/01 02:54:17;;;;;;;0.40;0.30;;;17.80;78.40;;;;;;5064732;28;20032;-73
2023/11/01 02:56:42;;;;;;;0.40;0.32;;;17.70;77.60;;;;;;5062412;28;20093;-73
2023/11/01 02:59:08;;;;;;;0.55;0.40;;;17.70;77.50;;;;;;5059503;28;20040;-73
2023/11/01 03:01:33;;;;;;;1.13;0.43;;;17.80;77.70;;;;;;5064721;28;20387;-73
2023/11/01 03:03:59;;;;;;;3.53;0.40;;;17.80;77.50;;;;;;5062552;28;20044;-74
2023/11/01 03:06:25;;;;;;;0.70;0.32;;;17.80;77.50;;;;;;5065631;28;20049;-73
2023/11/01 03:08:51;;;;;;;1.08;0.20;;;17.70;77.50;;;;;;5063870;28;20127;-73
2023/11/01 03:11:16;;;;;;;0.40;0.30;;;17.70;77.30;;;;;;5061546;28;20048;-73
2023/11/01 03:13:42;;;;;;;0.60;0.47;;;17.80;77.60;;;;;;5064873;28;20040;-73
2023/11/01 03:16:09;;;;;;;0.57;0.40;;;17.80;77.50;;;;;;5059737;28;20041;-73
2023/11/01 03:18:36;;;;;;;0.43;0.30;;;17.70;77.50;;;;;;5061237;28;20036;-73
2023/11/01 03:21:03;;;;;;;0.38;0.30;;;17.70;77.50;;;;;;5062987;28;20044;-73
2023/11/01 03:23:29;;;;;;;0.40;0.40;;;17.70;77.50;;;;;;5061697;28;20439;-73
2023/11/01 03:25:55;;;;;;;0.38;0.30;;;17.70;77.50;;;;;;5061542;28;20051;-73
2023/11/01 03:28:21;;;;;;;0.60;0.50;;;17.70;77.50;;;;;;5046675;28;20486;-73
2023/11/01 03:30:47;;;;;;;1.23;0.30;;;17.80;77.40;;;;;;5064973;28;20033;-73
2023/11/01 03:33:12;;;;;;;0.47;0.47;;;17.80;77.80;;;;;;5063358;28;20055;-73
2023/11/01 03:35:38;;;;;;;1.02;0.40;;;17.70;77.40;;;;;;5064243;28;20044;-73
2023/11/01 03:38:03;;;;;;;0.68;0.40;;;17.70;78.30;;;;;;5064022;28;20517;-73
2023/11/01 03:40:29;;;;;;;0.32;0.30;;;17.80;77.60;;;;;;5066798;28;20414;-73
2023/11/01 03:42:54;;;;;;;0.38;0.30;;;17.70;77.50;;;;;;5065144;28;20095;-73
2023/11/01 03:45:20;;;;;;;0.70;0.32;;;17.80;77.40;;;;;;5064570;28;20055;-73
2023/11/01 03:47:45;;;;;;;0.98;0.30;;;17.80;77.40;;;;;;5046517;28;20036;-73
2023/11/01 03:50:11;;;;;;;0.40;0.38;;;17.70;77.60;;;;;;5064860;28;20037;-73
2023/11/01 03:52:37;;;;;;;0.50;0.30;;;17.70;77.50;;;;;;5066607;28;20986;-73
2023/11/01 03:55:03;;;;;;;0.40;0.30;;;17.70;77.50;;;;;;5065007;28;20525;-73
2023/11/01 03:57:28;;;;;;;0.40;0.30;;;17.70;77.60;;;;;;5066755;28;20520;-73
2023/11/01 03:59:54;;;;;;;0.60;0.30;;;17.70;78.30;;;;;;5065438;28;20178;-75
2023/11/01 04:02:20;;;;;;;0.40;0.30;;;17.70;77.60;;;;;;5065394;28;20032;-73
2023/11/01 04:04:45;;;;;;;0.30;0.30;;;17.70;77.60;;;;;;5063415;28;20036;-73
2023/11/01 04:07:11;;;;;;;1.52;0.20;;;17.70;77.40;;;;;;5063388;28;20037;-73
2023/11/01 04:09:36;;;;;;;0.20;0.20;;;17.70;77.50;;;;;;5066558;28;20048;-72
2023/11/01 04:12:02;;;;;;;0.40;0.22;;;17.70;77.60;;;;;;5049460;28;20040;-73
2023/11/01 04:14:27;;;;;;;0.40;0.30;;;17.70;77.60;;;;;;5064118;28;20063;-73
2023/11/01 04:16:53;;;;;;;0.30;0.30;;;17.70;77.40;;;;;;5061632;28;20097;-73
2023/11/01 04:19:19;;;;;;;0.70;0.28;;;17.70;77.40;;;;;;5061117;28;20079;-73
2023/11/01 04:21:45;;;;;;;0.50;0.30;;;17.70;77.50;;;;;;5066736;28;20051;-73
2023/11/01 04:24:10;;;;;;;0.50;0.50;;;17.70;77.50;;;;;;5066625;28;20040;-73
2023/11/01 04:26:36;;;;;;;0.20;0.20;;;17.70;77.60;;;;;;5065195;28;20502;-72
2023/11/01 04:29:03;;;;;;;1.75;0.40;;;17.70;77.60;;;;;;5063805;28;20040;-73
2023/11/01 04:31:29;;;;;;;0.50;0.28;;;17.70;77.60;;;;;;5063544;28;20028;-72
2023/11/01 04:33:54;;;;;;;0.68;0.20;;;17.70;77.60;;;;;;5063867;28;20047;-72
2023/11/01 04:36:26;;;;;;;0.20;0.20;;;17.70;77.60;;;;;;5066062;28;20044;-72
2023/11/01 04:38:53;;;;;;;0.28;0.20;;;17.70;77.50;;;;;;5061608;28;20041;-72
2023/11/01 04:41:19;;;;;;;0.50;0.25;;;17.70;77.50;;;;;;5062544;28;20040;-72
2023/11/01 04:43:47;;;;;;;0.32;0.10;;;17.70;77.40;;;;;;5064073;28;20223;-72
2023/11/01 04:46:13;;;;;;;0.30;0.30;;;17.70;77.60;;;;;;5062634;28;20029;-72
2023/11/01 04:48:39;;;;;;;0.30;0.30;;;17.70;77.50;;;;;;5066849;28;20040;-72
2023/11/01 04:51:05;;;;;;;0.22;0.17;;;17.70;77.40;;;;;;5065568;28;20031;-72
2023/11/01 04:53:30;;;;;;;0.30;0.17;;;17.70;77.40;;;;;;5065624;28;20080;-72
2023/11/01 04:55:56;;;;;;;1.00;0.25;;;17.70;77.50;;;;;;5064071;28;20047;-72
2023/11/01 04:58:22;;;;;;;0.30;0.20;;;17.70;77.40;;;;;;5064033;28;20036;-72
2023/11/01 05:00:48;;;;;;;0.40;0.20;;;17.70;77.50;;;;;;5062148;28;20086;-72
2023/11/01 05:03:14;;;;;;;0.50;0.30;;;17.70;77.50;;;;;;5064972;28;20041;-73
2023/11/01 05:05:40;;;;;;;0.20;0.15;;;17.70;77.50;;;;;;5063630;28;20074;-72
2023/11/01 05:08:06;;;;;;;0.30;0.20;;;17.70;77.50;;;;;;5064297;28;20055;-73
2023/11/01 05:10:31;;;;;;;0.50;0.20;;;17.70;77.40;;;;;;5066440;28;20041;-72
2023/11/01 05:12:57;;;;;;;0.55;0.20;;;17.70;77.40;;;;;;5063915;28;20505;-72
2023/11/01 05:15:23;;;;;;;0.45;0.45;;;17.70;77.40;;;;;;5064203;28;20516;-72
2023/11/01 05:17:48;;;;;;;0.47;0.30;;;17.70;77.40;;;;;;5063350;28;20037;-72
2023/11/01 05:20:14;;;;;;;0.28;0.20;;;17.70;77.30;;;;;;5058063;28;20415;-72
2023/11/01 05:22:41;;;;;;;0.30;0.10;;;17.70;77.40;;;;;;5063325;28;20127;-72
2023/11/01 05:25:13;;;;;;;0.10;0.10;;;17.70;77.50;;;;;;5062994;28;20029;-73
2023/11/01 05:27:42;;;;;;;0.22;0.20;;;17.70;77.30;;;;;;5063108;28;20079;-72
2023/11/01 05:30:14;;;;;;;0.45;0.20;;;17.70;77.30;;;;;;5063930;28;20032;-72
2023/11/01 05:32:41;;;;;;;0.35;0.30;;;17.70;77.40;;;;;;5061935;28;20043;-72
2023/11/01 05:35:08;;;;;;;0.80;0.40;;;17.70;77.40;;;;;;5061866;28;20044;-72
2023/11/01 05:37:33;;;;;;;0.32;0.20;;;17.70;77.30;;;;;;5095857;28;20033;-72
2023/11/01 05:39:59;;;;;;;0.20;0.20;;;17.70;77.30;;;;;;5094611;28;20470;-72
2023/11/01 05:42:24;;;;;;;0.30;0.30;;;17.70;77.30;;;;;;5061723;28;20045;-72
2023/11/01 05:44:50;;;;;;;0.10;0.10;;;17.70;77.30;;;;;;5065822;28;20511;-73
2023/11/01 05:47:15;;;;;;;0.40;0.38;;;17.70;77.30;;;;;;5062706;28;20052;-73
2023/11/01 05:49:41;;;;;;;0.40;0.30;;;17.70;77.30;;;;;;5061210;28;20086;-72
2023/11/01 05:52:06;;;;;;;0.20;0.15;;;17.70;77.30;;;;;;5063354;28;20529;-73
2023/11/01 05:54:32;;;;;;;0.73;0.25;;;17.70;77.50;;;;;;5065474;28;20036;-72
2023/11/01 05:56:57;;;;;;;0.40;0.30;;;17.70;77.40;;;;;;5063081;28;20083;-73
2023/11/01 05:59:23;;;;;;;0.20;0.10;;;17.70;77.40;;;;;;5060492;28;20049;-73
2023/11/01 06:01:49;;;;;;;0.32;0.28;;;17.60;78.70;;;;;;5061565;28;20040;-72
2023/11/01 06:04:14;;;;;;;0.35;0.10;;;17.60;78.70;;;;;;5055648;28;20049;-72
2023/11/01 06:06:40;;;;;;;0.52;0.20;;;17.70;77.60;;;;;;5063852;28;20024;-74
2023/11/01 06:09:05;;;;;;;0.20;0.10;;;17.70;77.70;;;;;;5059685;28;20025;-74
2023/11/01 06:11:31;;;;;;;0.40;0.20;;;17.70;77.70;;;;;;5062556;28;20091;-74
2023/11/01 06:13:57;;;;;;;0.22;0.10;;;17.60;77.30;;;;;;5059404;28;20041;-74
2023/11/01 06:16:23;;;;;;;0.20;0.10;;;17.60;77.30;;;;;;5061002;28;20044;-74
2023/11/01 06:18:48;;;;;;;0.10;0.10;;;17.70;77.50;;;;;;5061062;28;20095;-74
2023/11/01 06:21:14;;;;;;;0.30;0.30;;;17.70;77.30;;;;;;5078605;28;20072;-74
2023/11/01 06:23:40;;;;;;;0.20;0.10;;;17.60;77.30;;;;;;5047431;28;20114;-74
2023/11/01 06:26:05;;;;;;;0.35;0.13;;;17.70;77.30;;;;;;5043382;28;20064;-74
2023/11/01 06:28:31;;;;;;;0.20;0.15;;;17.70;77.30;;;;;;5058866;28;20059;-73
2023/11/01 06:30:56;;;;;;;0.22;0.15;;;17.60;77.40;;;;;;5058326;28;20125;-73
2023/11/01 06:33:22;;;;;;;0.10;0.10;;;17.60;77.40;;;;;;5058598;28;20464;-74
2023/11/01 06:35:48;;;;;;;0.28;0.20;;;17.60;77.40;;;;;;5062215;28;20059;-74
2023/11/01 06:38:13;;;;;;;0.47;0.10;;;17.60;77.40;;;;;;5057535;28;20044;-74
2023/11/01 06:40:39;;;;;;;0.65;0.32;;;17.70;77.30;;;;;;5060323;28;20044;-74
2023/11/01 06:43:04;;;;;;;0.43;0.10;;;17.60;77.40;;;;;;5059700;28;20035;-73
2023/11/01 06:45:30;;;;;;;0.15;0.10;;;17.70;77.10;;;;;;5060368;28;20770;-74
2023/11/01 06:47:56;;;;;;;0.43;0.20;;;17.60;77.30;;;;;;5062258;28;20506;-74
2023/11/01 06:50:21;;;;;;;0.10;0.10;;;17.60;77.30;;;;;;5061959;28;20819;-74
2023/11/01 06:52:47;;;;;;;0.13;0.13;;;17.70;77.30;;;;;;5061708;28;20036;-74
2023/11/01 06:55:13;;;;;;;0.20;0.10;;;17.70;77.20;;;;;;5061715;28;20041;-74
2023/11/01 06:57:39;;;;;;;0.15;0.10;;;17.70;77.20;;;;;;5063862;28;20037;-74
2023/11/01 07:00:06;;;;;;;0.45;0.22;;;17.60;77.10;;;;;;5064800;28;20573;-74
2023/11/01 07:02:32;;;;;;;0.20;0.20;;;17.70;77.20;;;;;;5072935;28;20052;-73
2023/11/01 07:04:57;;;;;;;0.00;0.00;;;17.60;77.20;;;;;;5062365;28;20028;-74
2023/11/01 07:07:23;;;;;;;0.25;0.17;;;17.60;77.30;;;;;;5061771;28;20052;-73
2023/11/01 07:09:48;;;;;;;1.40;0.20;;;17.60;77.20;;;;;;5066250;28;20028;-74
2023/11/01 07:12:14;;;;;;;0.28;0.10;;;17.60;77.20;;;;;;5067160;28;20041;-74
2023/11/01 07:14:39;;;;;;;0.25;0.17;;;17.60;77.30;;;;;;5065906;28;20573;-74
2023/11/01 07:17:05;;;;;;;0.10;0.10;;;17.60;77.20;;;;;;5066276;28;20398;-75
2023/11/01 07:19:30;;;;;;;0.40;0.20;;;17.60;77.20;;;;;;5047181;28;20521;-73
2023/11/01 07:21:56;;;;;;;0.10;0.10;;;17.60;77.10;;;;;;5066579;28;20080;-73
2023/11/01 07:24:21;;;;;;;0.68;0.10;;;17.60;76.90;;;;;;5070235;28;20065;-74
2023/11/01 07:26:47;;;;;;;0.20;0.17;;;17.60;77.00;;;;;;5066210;28;20036;-73
2023/11/01 07:29:13;;;;;;;0.10;0.00;;;17.60;77.10;;;;;;5064565;28;20417;-74
2023/11/01 07:31:38;;;;;;;0.40;0.40;;;17.60;77.20;;;;;;5061081;28;20110;-73
2023/11/01 07:34:04;;;;;;;0.10;0.08;;;17.60;77.10;;;;;;5062394;28;20563;-74
2023/11/01 07:36:29;;;;;;;0.30;0.20;;;17.60;77.10;;;;;;5069151;28;20568;-74
2023/11/01 07:38:55;;;;;;;0.15;0.10;;;17.60;77.60;;;;;;5064639;28;20037;-74
2023/11/01 07:41:21;;;;;;;0.10;0.07;;;17.60;78.00;;;;;;4709687;28;9999917;-73
2023/11/01 07:43:46;;;;;;;0.10;0.10;;;17.70;77.40;;;;;;5060888;28;20066;-74
2023/11/01 07:46:12;;;;;;;0.10;0.10;;;17.70;77.00;;;;;;5060354;28;20065;-73
2023/11/01 07:48:37;;;;;;;0.70;0.40;;;17.70;77.00;;;;;;5064322;28;20102;-73
2023/11/01 07:51:07;;;;;;;0.20;0.10;;;17.70;77.10;;;;;;5042907;28;20107;-74
2023/11/01 07:53:33;;;;;;;0.15;0.00;;;17.70;77.10;;;;;;5040663;28;20040;-74
2023/11/01 07:55:59;;;;;;;0.00;0.00;;;17.70;77.10;;;;;;5065239;28;20472;-74
2023/11/01 07:58:24;;;;;;;0.17;0.17;;;17.70;76.90;;;;;;5058479;28;20044;-74
2023/11/01 08:00:50;;;;;;;0.70;0.20;;;17.70;77.00;;;;;;5064647;28;20544;-74
2023/11/01 08:03:16;;;;;;;0.20;0.13;;;17.70;77.00;;;;;;5066402;28;20410;-74
2023/11/01 08:05:41;;;;;;;0.55;0.20;;;17.70;77.20;;;;;;5058210;28;20559;-73
2023/11/01 08:08:07;;;;;;;0.50;0.20;;;17.70;76.90;;;;;;5059415;28;20395;-74
2023/11/01 08:10:32;;;;;;;0.10;0.10;;;17.70;76.80;;;;;;5090004;28;20384;-74
2023/11/01 08:12:59;;;;;;;0.10;0.10;;;17.70;76.80;;;;;;5061328;28;20052;-74
2023/11/01 08:15:24;;;;;;;0.30;0.20;;;17.70;76.70;;;;;;5062870;28;20040;-74
2023/11/01 08:17:50;;;;;;;0.25;0.10;;;17.70;76.70;;;;;;5059520;28;20041;-74
2023/11/01 08:20:15;;;;;;;0.20;0.10;;;17.70;76.70;;;;;;5057484;28;20037;-74
2023/11/01 08:22:41;;;;;;;0.30;0.20;;;17.70;76.80;;;;;;5062485;28;20047;-74
2023/11/01 08:25:07;;;;;;;0.10;0.10;;;17.70;76.90;;;;;;5061204;28;20052;-73
2023/11/01 08:27:34;;;;;;;0.30;0.20;;;17.70;76.80;;;;;;5064992;28;20056;-74
2023/11/01 08:29:59;;;;;;;0.22;0.17;;;17.70;77.00;;;;;;5061687;28;20097;-74
2023/11/01 08:32:25;;;;;;;0.20;0.20;;;17.70;76.70;;;;;;5055766;28;20040;-73
2023/11/01 08:34:50;;;;;;;0.50;0.20;;;17.70;76.60;;;;;;5093901;28;20247;-74
2023/11/01 08:37:16;;;;;;;0.17;0.17;;;17.70;77.00;;;;;;5061881;28;20514;-74
2023/11/01 08:39:42;;;;;;;0.10;0.10;;;17.70;76.90;;;;;;5062543;28;20040;-73
2023/11/01 08:42:08;;;;;;;0.20;0.10;;;17.70;77.50;;;;;;5064097;28;20405;-73
2023/11/01 08:44:33;;;;;;;0.35;0.20;;;17.70;76.70;;;;;;5061535;28;20075;-74
2023/11/01 08:47:01;;;;;;;0.20;0.10;;;17.70;76.60;;;;;;5065941;28;20128;-73
2023/11/01 08:49:27;;;;;;;0.15;0.10;;;17.70;76.60;;;;;;5065366;28;20425;-73
2023/11/01 08:51:53;;;;;;;0.20;0.20;;;17.80;76.80;;;;;;5098082;28;20521;-73
2023/11/01 08:54:19;;;;;;;0.70;0.20;;;17.70;76.80;;;;;;5069218;28;20402;-74
2023/11/01 08:56:45;;;;;;;0.10;0.10;;;17.70;76.80;;;;;;5065353;28;20053;-76
2023/11/01 08:59:11;;;;;;;0.40;0.20;;;17.70;76.90;;;;;;5063553;28;20039;-77
2023/11/01 09:01:36;;;;;;;0.25;0.10;;;17.70;77.10;;;;;;5053096;28;20036;-76
2023/11/01 09:04:02;;;;;;;0.15;0.10;;;17.70;77.30;;;;;;5064682;28;20043;-74
2023/11/01 09:06:30;;;;;;;0.70;0.10;;;17.70;77.00;;;;;;5063943;28;20060;-74
2023/11/01 09:08:55;;;;;;;0.13;0.13;;;17.70;76.80;;;;;;5048432;28;20036;-75
2023/11/01 09:11:23;;;;;;;0.10;0.10;;;17.70;77.10;;;;;;5063301;28;20046;-75
2023/11/01 09:13:49;;;;;;;0.25;0.05;;;17.70;77.40;;;;;;5059811;28;20061;-75
2023/11/01 09:16:15;;;;;;;0.30;0.10;;;17.70;77.60;;;;;;5060400;28;20524;-75
2023/11/01 09:18:41;;;;;;;0.43;0.20;;;17.70;77.30;;;;;;5065175;28;20041;-74
2023/11/01 09:21:07;;;;;;;0.10;0.10;;;17.70;77.00;;;;;;5097956;28;20059;-75
2023/11/01 09:23:34;;;;;;;0.13;0.10;;;17.70;77.30;;;;;;4708559;28;10000318;-74
2023/11/01 09:26:01;;;;;;;0.30;0.10;;;17.80;77.80;;;;;;5056621;28;20048;-76
2023/11/01 09:28:26;;;;;;;0.32;0.13;;;17.80;78.10;;;;;;5057990;28;20068;-76
2023/11/01 09:30:52;;;;;;;0.25;0.15;;;17.80;78.30;;;;;;5046447;28;20032;-76
2023/11/01 09:33:18;;;;;;;0.28;0.13;;;17.80;77.00;;;;;;5062212;28;20042;-76
2023/11/01 09:35:43;;;;;;;0.10;0.10;;;17.80;77.00;;;;;;5061604;28;20062;-76
2023/11/01 09:38:09;;;;;;;0.40;0.20;;;17.80;77.10;;;;;;5064336;28;20124;-76
2023/11/01 09:40:34;;;;;;;0.20;0.10;;;17.80;77.20;;;;;;5059731;28;20041;-76
2023/11/01 09:43:00;;;;;;;0.25;0.10;;;17.80;77.20;;;;;;5063221;28;20037;-75
2023/11/01 09:45:26;;;;;;;0.10;0.10;;;17.90;77.20;;;;;;5061770;28;20636;-76
2023/11/01 09:47:51;;;;;;;0.30;0.30;;;17.80;77.10;;;;;;5090271;28;20127;-78
2023/11/01 09:50:17;;;;;;;0.35;0.20;;;17.90;77.00;;;;;;4695522;28;10000569;-78
2023/11/01 09:52:43;;;;;;;0.45;0.20;;;17.90;76.90;;;;;;5074461;28;20047;-77
2023/11/01 09:55:09;;;;;;;0.77;0.10;;;17.90;77.10;;;;;;5058404;28;20138;-79
2023/11/01 09:57:35;;;;;;;0.28;0.20;;;17.90;77.20;;;;;;5058628;28;20053;-79
2023/11/01 10:00:03;;;;;;;0.30;0.10;;;17.90;77.60;;;;;;5055053;28;20036;-79
2023/11/01 10:02:28;;;;;;;0.75;0.28;;;17.90;77.90;;;;;;5058534;28;20446;-78
2023/11/01 10:04:54;;;;;;;1.15;0.30;;;17.90;79.00;;;;;;5059692;28;20509;-79
2023/11/01 10:07:19;;;;;;;0.70;0.30;;;18.00;78.90;;;;;;5073913;28;20071;-86
2023/11/01 10:09:46;;;;;;;0.20;0.17;;;18.00;78.70;;;;;;5059252;28;20053;-85
2023/11/01 10:12:13;;;;;;;0.40;0.20;;;18.10;78.40;;;;;;5088417;28;20051;-85
2023/11/01 10:14:38;;;;;;;2.17;0.30;;;18.10;78.40;;;;;;5055487;28;20047;-81
2023/11/01 10:17:04;;;;;;;0.90;0.35;;;18.10;78.30;;;;;;5058968;28;20067;-81
2023/11/01 10:19:30;;;;;;;0.52;0.15;;;18.10;78.50;;;;;;5041325;28;20086;-80
2023/11/01 10:21:56;;;;;;;0.40;0.20;;;18.10;78.40;;;;;;5062570;28;20059;-84
2023/11/01 10:24:25;;;;;;;1.63;0.30;;;18.10;78.50;;;;;;5074317;28;20045;-82
2023/11/01 10:26:56;;;;;;;0.63;0.50;;;18.20;78.50;;;;;;5087790;28;20052;-82
2023/11/01 10:29:22;;;;;;;1.75;0.22;;;18.20;78.60;;;;;;5041953;28;20045;-82
2023/11/01 10:31:54;;;;;;;1.58;0.32;;;18.20;78.80;;;;;;5062289;28;20049;-84
2023/11/01 10:34:27;;;;;;;1.20;0.20;;;18.20;79.00;;;;;;5058696;28;20970;-79
2023/11/01 10:36:52;;;;;;;1.02;0.30;;;18.30;79.20;;;;;;5056617;28;20060;-82
2023/11/01 10:39:19;;;;;;;2.42;0.50;;;18.30;79.30;;;;;;5059918;28;20037;-79
2023/11/01 10:41:48;;;;;;;0.85;0.30;;;18.30;79.80;;;;;;5057237;28;20047;-80
2023/11/01 10:44:17;;;;;;;3.70;0.40;;;18.30;79.40;;;;;;5059088;28;20048;-80
2023/11/01 10:46:43;;;;;;;0.32;0.32;;;18.40;79.40;;;;;;5072249;28;20535;-81
2023/11/01 10:49:09;;;;;;;0.20;0.20;;;18.40;79.30;;;;;;5061623;28;20058;-79
2023/11/01 10:51:37;;;;;;;0.38;0.28;;;18.30;79.20;;;;;;5059236;28;20064;-83
2023/11/01 10:54:03;;;;;;;0.43;0.30;;;18.40;79.00;;;;;;5058572;28;20033;-82
2023/11/01 10:56:29;;;;;;;0.63;0.30;;;18.40;78.40;;;;;;5038454;28;20048;-81
2023/11/01 10:59:01;;;;;;;1.48;0.47;;;18.40;78.70;;;;;;5061321;28;20124;-82
2023/11/01 11:01:31;;;;;;;0.63;0.40;;;18.40;80.50;;;;;;5071406;28;20071;-80
2023/11/01 11:04:20;;;;;;;0.47;0.40;;;18.50;80.70;;;;;;5060421;28;20079;-81
2023/11/01 11:06:58;;;;;;;0.28;0.25;;;18.50;80.10;;;;;;5091107;28;20518;-79
2023/11/01 11:09:24;;;;;;;0.47;0.30;;;18.60;79.70;;;;;;5070806;28;20055;-82
2023/11/01 11:12:16;;;;;;;0.73;0.50;;;18.60;79.40;;;;;;5044552;28;20048;-82
2023/11/01 11:14:49;;;;;;;0.60;0.30;;;18.60;79.30;;;;;;5057756;28;20049;-80
2023/11/01 11:17:16;;;;;;;0.50;0.32;;;18.60;79.10;;;;;;5071713;28;20127;-83
2023/11/01 11:20:11;;;;;;;0.30;0.25;;;18.60;78.80;;;;;;5059070;28;20135;-80
2023/11/01 11:23:00;;;;;;;0.50;0.25;;;18.60;78.40;;;;;;5058365;28;20068;-80
2023/11/01 11:25:38;;;;;;;0.82;0.20;;;18.60;78.60;;;;;;5058495;28;20685;-80
2023/11/01 11:28:07;;;;;;;0.77;0.30;;;18.50;78.80;;;;;;5056323;28;20525;-83
2023/11/01 11:30:44;;;;;;;0.57;0.30;;;18.50;78.60;;;;;;5059643;28;20044;-84
2023/11/01 11:33:11;;;;;;;0.70;0.30;;;18.50;78.90;;;;;;5058762;28;20509;-82
2023/11/01 11:35:36;;;;;;;0.40;0.30;;;18.50;78.90;;;;;;5055771;28;20120;-83
2023/11/01 11:38:32;;;;;;;0.77;0.30;;;18.50;78.90;;;;;;5043793;28;20157;-83
2023/11/01 11:41:16;;;;;;;0.52;0.28;;;18.50;78.80;;;;;;5043781;28;20044;-84
2023/11/01 11:44:00;;;;;;;0.43;0.25;;;18.50;78.60;;;;;;5053987;28;20670;-77
2023/11/01 11:46:26;;;;;;;0.40;0.20;;;18.50;78.60;;;;;;5059097;28;20044;-77
2023/11/01 11:48:52;;;;;;;0.40;0.30;;;18.50;78.60;;;;;;5057497;28;20117;-79
2023/11/01 11:51:18;;;;;;;0.52;0.50;;;18.50;78.50;;;;;;5058760;28;20072;-78
2023/11/01 11:53:43;;;;;;;0.50;0.35;;;18.50;78.40;;;;;;5024199;28;20510;-78
2023/11/01 11:56:09;;;;;;;0.95;0.40;;;18.50;78.40;;;;;;5057855;28;20571;-78
2023/11/01 11:58:38;;;;;;;0.60;0.30;;;18.50;78.20;;;;;;5059116;28;20060;-79
2023/11/01 12:01:04;;;;;;;0.98;0.45;;;18.50;78.30;;;;;;5090932;28;20931;-79
2023/11/01 12:03:29;;;;;;;0.55;0.30;;;18.50;78.20;;;;;;5061524;28;20037;-78
2023/11/01 12:05:56;;;;;;;1.85;0.38;;;18.50;78.20;;;;;;5058914;28;20049;-76
2023/11/01 12:08:33;;;;;;;0.55;0.38;;;18.50;78.20;;;;;;5061918;28;20497;-76
2023/11/01 12:10:59;;;;;;;0.63;0.50;;;18.50;78.70;;;;;;5056588;28;20052;-76
2023/11/01 12:13:39;;;;;;;1.83;0.45;;;18.40;78.40;;;;;;5064166;28;20500;-76
2023/11/01 12:16:06;;;;;;;8.52;0.60;;;18.50;78.10;;;;;;5063696;28;20068;-76
2023/11/01 12:18:32;;;;;;;2.50;0.88;;;18.50;78.80;;;;;;5066577;28;20044;-76
2023/11/01 12:20:57;;;;;;;1.38;0.50;;;18.50;77.90;;;;;;5066401;28;20041;-76
2023/11/01 12:23:23;;;;;;;0.40;0.40;;;18.50;77.80;;;;;;5060538;28;20036;-76
2023/11/01 12:25:48;;;;;;;2.35;0.38;;;18.50;77.80;;;;;;5045550;28;20131;-76
2023/11/01 12:28:23;;;;;;;2.22;0.38;;;18.50;77.80;;;;;;5063545;28;20414;-76
2023/11/01 12:30:49;;;;;;;0.73;0.50;;;18.50;77.70;;;;;;5066289;28;20514;-76
2023/11/01 12:33:18;;;;;;;1.88;0.40;;;18.50;77.70;;;;;;5063910;28;20051;-76
2023/11/01 12:35:44;;;;;;;1.35;0.60;;;18.40;77.80;;;;;;5063038;28;20635;-76
2023/11/01 12:38:16;;;;;;;1.52;0.60;;;18.40;77.70;;;;;;5061206;28;20058;-76
2023/11/01 12:40:41;;;;;;;1.13;0.50;;;18.50;77.70;;;;;;5062387;28;20033;-76
2023/11/01 12:43:08;;;;;;;2.03;0.70;;;18.50;78.20;;;;;;5095494;28;20037;-76